createdAt,value
2019-04-30T16:34:56.716Z,93.10
2019-04-30T16:38:05.662Z,46.20
2019-04-30T16:40:35.255Z,38.40
2019-04-30T16:43:06.089Z,38.10
2019-04-30T16:45:35.779Z,38.60
2019-04-30T16:48:06.130Z,39.40
2019-04-30T16:50:35.329Z,38.90
2019-04-30T16:53:04.703Z,39.20
2019-04-30T16:55:34.089Z,38.60
2019-04-30T16:58:03.547Z,38.70
2019-04-30T17:00:33.154Z,38.50
2019-04-30T17:03:02.471Z,38.50
2019-04-30T17:05:31.551Z,37.60
2019-04-30T17:08:01.847Z,37.80
2019-04-30T17:10:31.285Z,37.30
2019-04-30T17:13:04.286Z,38.20
2019-04-30T17:15:41.053Z,38.40
2019-04-30T17:18:12.308Z,38.80
2019-04-30T17:20:41.089Z,38.40
2019-04-30T17:23:10.485Z,38.50
2019-04-30T17:25:39.642Z,38.70
2019-04-30T17:28:11.862Z,38.80
2019-04-30T17:30:41.270Z,39.00
2019-04-30T17:33:10.987Z,39.50
2019-04-30T17:35:40.667Z,39.80
2019-04-30T17:38:11.422Z,38.70
2019-04-30T17:40:43.602Z,38.30
2019-04-30T17:43:13.929Z,37.90
2019-04-30T17:45:43.308Z,37.30
2019-04-30T17:48:12.792Z,36.90
2019-04-30T17:50:42.739Z,36.60
2019-04-30T17:53:13.089Z,36.40
2019-04-30T17:55:49.990Z,36.50
2019-04-30T17:58:20.630Z,36.60
2019-04-30T18:00:50.182Z,36.70
2019-04-30T18:03:19.339Z,36.50
2019-04-30T18:05:49.851Z,36.30
2019-04-30T18:08:22.121Z,36.00
2019-04-30T18:10:52.204Z,35.70
2019-04-30T18:13:21.707Z,35.50
2019-04-30T18:15:51.321Z,35.30
2019-04-30T18:18:20.762Z,35.40
2019-04-30T18:20:51.671Z,35.40
2019-04-30T18:23:24.822Z,35.50
2019-04-30T18:25:58.866Z,35.20
2019-04-30T18:28:29.133Z,35.40
2019-04-30T18:30:59.121Z,35.10
2019-04-30T18:33:29.537Z,35.30
2019-04-30T18:35:59.679Z,35.10
2019-04-30T18:38:30.695Z,35.10
2019-04-30T18:40:59.602Z,34.50
2019-04-30T18:43:30.618Z,34.60
2019-04-30T18:46:01.676Z,34.60
2019-04-30T18:48:30.870Z,34.80
2019-04-30T18:50:59.873Z,34.60
2019-04-30T18:53:32.447Z,34.70
2019-04-30T18:56:03.191Z,35.40
2019-04-30T18:58:39.910Z,35.60
2019-04-30T19:01:03.939Z,35.80
2019-04-30T19:03:34.166Z,35.50
2019-04-30T19:06:04.386Z,35.50
2019-04-30T19:08:33.995Z,36.20
2019-04-30T19:11:03.246Z,35.90
2019-04-30T19:13:33.514Z,36.50
2019-04-30T19:16:18.513Z,36.40
2019-04-30T19:18:36.730Z,36.10
2019-04-30T19:21:06.143Z,35.60
2019-04-30T19:23:38.892Z,35.70
2019-04-30T19:26:07.487Z,35.30
2019-04-30T19:28:38.585Z,35.20
2019-04-30T19:31:11.763Z,35.40
2019-04-30T19:33:41.520Z,35.90
2019-04-30T19:36:10.635Z,36.30
2019-04-30T19:38:40.677Z,36.60
2019-04-30T19:41:10.856Z,36.70
2019-04-30T19:43:40.373Z,36.90
2019-04-30T19:46:09.801Z,37.00
2019-04-30T19:48:39.691Z,37.10
2019-04-30T19:51:09.436Z,37.10
2019-04-30T19:53:39.560Z,37.20
2019-04-30T19:56:09.129Z,37.10
2019-04-30T19:58:55.441Z,37.30
2019-04-30T20:01:10.213Z,37.20
2019-04-30T20:03:42.053Z,36.70
2019-04-30T20:06:14.551Z,36.90
2019-04-30T20:08:43.955Z,37.20
2019-04-30T20:11:13.162Z,37.90
2019-04-30T20:13:45.849Z,37.50
2019-04-30T20:16:15.064Z,37.70
2019-04-30T20:18:44.646Z,37.80
2019-04-30T20:21:14.135Z,37.70
2019-04-30T20:23:43.554Z,38.10
2019-04-30T20:26:12.617Z,38.20
2019-04-30T20:28:42.576Z,38.20
2019-04-30T20:31:11.749Z,38.00
2019-04-30T20:33:42.081Z,37.40
2019-04-30T20:36:11.320Z,36.80
2019-04-30T20:38:40.582Z,36.10
2019-04-30T20:41:10.100Z,36.00
2019-04-30T20:43:40.761Z,35.90
2019-04-30T20:46:10.135Z,35.90
2019-04-30T20:48:41.188Z,35.90
2019-04-30T20:51:09.998Z,35.80
2019-04-30T20:53:41.047Z,36.20
2019-04-30T20:56:10.317Z,36.10
2019-04-30T20:58:54.648Z,36.50
2019-04-30T21:01:13.317Z,36.60
2019-04-30T21:03:42.734Z,36.90
2019-04-30T21:06:12.442Z,36.90
2019-04-30T21:08:41.733Z,36.90
2019-04-30T21:11:11.131Z,36.90
2019-04-30T21:13:44.411Z,37.00
2019-04-30T21:16:13.748Z,37.00
2019-04-30T21:18:43.672Z,37.00
2019-04-30T21:21:12.867Z,36.90
2019-04-30T21:23:42.084Z,36.90
2019-04-30T21:26:11.661Z,37.00
2019-04-30T21:28:41.168Z,37.00
2019-04-30T21:31:12.436Z,37.00
2019-04-30T21:33:41.609Z,36.80
2019-04-30T21:36:10.910Z,37.00
2019-04-30T21:38:41.764Z,36.70
2019-04-30T21:41:11.273Z,36.00
2019-04-30T21:43:40.737Z,35.50
2019-04-30T21:46:10.266Z,35.40
2019-04-30T21:48:39.483Z,35.30
2019-04-30T21:51:09.430Z,35.30
2019-04-30T21:53:40.026Z,35.20
2019-04-30T21:56:09.319Z,34.90
2019-04-30T21:58:42.093Z,34.80
2019-04-30T22:01:11.289Z,34.80
2019-04-30T22:03:41.294Z,34.60
2019-04-30T22:06:11.761Z,34.40
2019-04-30T22:08:49.546Z,34.70
2019-04-30T22:11:19.806Z,34.70
2019-04-30T22:13:50.236Z,34.80
2019-04-30T22:16:24.783Z,35.00
2019-04-30T22:18:53.468Z,34.90
2019-04-30T22:21:22.725Z,34.80
2019-04-30T22:23:52.420Z,35.20
2019-04-30T22:26:21.894Z,35.20
2019-04-30T22:28:51.636Z,35.10
2019-04-30T22:31:21.135Z,35.00
2019-04-30T22:33:50.470Z,35.00
2019-04-30T22:36:19.763Z,35.10
2019-04-30T22:38:50.183Z,34.90
2019-04-30T22:41:19.502Z,35.00
2019-04-30T22:43:48.960Z,35.20
2019-04-30T22:46:20.564Z,35.40
2019-04-30T22:48:50.074Z,35.40
2019-04-30T22:51:20.520Z,35.70
2019-04-30T22:53:49.999Z,35.70
2019-04-30T22:56:19.320Z,35.90
2019-04-30T22:58:48.998Z,36.10
2019-04-30T23:01:18.821Z,36.20
2019-04-30T23:03:48.616Z,36.60
2019-04-30T23:06:18.131Z,36.70
2019-04-30T23:08:47.751Z,36.70
2019-04-30T23:11:17.375Z,36.50
2019-04-30T23:13:46.968Z,36.40
2019-04-30T23:16:16.871Z,35.80
2019-04-30T23:18:46.332Z,35.50
2019-04-30T23:21:16.996Z,35.70
2019-04-30T23:23:48.604Z,35.80
2019-04-30T23:26:17.973Z,36.10
2019-04-30T23:28:50.570Z,36.20
2019-04-30T23:31:22.552Z,36.30
2019-04-30T23:33:51.717Z,36.50
2019-04-30T23:36:20.934Z,37.00
2019-04-30T23:38:49.957Z,37.20
2019-04-30T23:41:19.220Z,37.00
2019-04-30T23:43:48.211Z,36.80
2019-04-30T23:46:20.687Z,37.60
2019-04-30T23:48:49.933Z,38.30
2019-04-30T23:51:20.142Z,38.60
2019-04-30T23:53:50.598Z,38.60
2019-04-30T23:56:20.643Z,38.50
2019-04-30T23:58:50.259Z,38.50
